Time;durP1;ratioP1;P1;durP2;ratioP2;P2;SDS_P1;SDS_P2;PMS_P1;PMS_P2;Temp;Humidity;BMP_temperature;BMP_pressure;BME280_temperature;BME280_humidity;BME280_pressure;Samples;Min_cycle;Max_cycle;Signal;HPM_P1;HPM_P2
2022/07/13 00:01:12;;;;;;;2.17;1.87;;;;;;;19.73;100.00;102075.97;4962890;28;20556;-76
2022/07/13 00:03:37;;;;;;;2.27;1.60;;;;;;;18.81;100.00;101923.69;4965328;28;20217;-76
2022/07/13 00:06:04;;;;;;;2.70;1.77;;;;;;;19.47;100.00;102003.63;4962515;28;20195;-75
2022/07/13 00:08:29;;;;;;;1.83;1.43;;;;;;;19.84;100.00;102075.16;4962193;28;20277;-75
2022/07/13 00:10:55;;;;;;;1.47;1.33;;;;;;;19.85;100.00;102078.72;4959335;28;20975;-76
2022/07/13 00:13:20;;;;;;;2.37;1.47;;;;;;;20.20;100.00;102118.88;4960275;28;20221;-75
2022/07/13 00:15:45;;;;;;;2.53;1.03;;;;;;;20.20;100.00;102118.88;4963456;28;20186;-75
2022/07/13 00:18:11;;;;;;;3.80;1.27;;;;;;;19.81;100.00;102064.72;4960021;28;20194;-76
2022/07/13 00:20:36;;;;;;;1.73;1.63;;;;;;;19.45;100.00;101994.03;4960181;28;20187;-76
2022/07/13 00:23:02;;;;;;;2.23;1.40;;;;;;;20.21;100.00;102115.06;4960111;28;20310;-75
2022/07/13 00:25:27;;;;;;;1.57;1.33;;;;;;;20.19;100.00;102112.59;4959070;28;20253;-76
2022/07/13 00:27:53;;;;;;;1.90;1.33;;;;;;;19.94;100.00;102074.63;4959633;28;20580;-76
2022/07/13 00:30:19;;;;;;;1.93;1.47;;;;;;;18.84;100.00;101900.69;4958308;28;20186;-76
2022/07/13 00:32:44;;;;;;;1.27;1.00;;;;;;;20.19;100.00;102096.25;4974662;28;20555;-76
2022/07/13 00:35:09;;;;;;;1.83;1.50;;;;;;;19.59;100.00;102001.78;4960564;28;20987;-76
2022/07/13 00:37:35;;;;;;;1.20;1.10;;;;;;;19.63;100.00;102002.13;4961831;28;20187;-76
2022/07/13 00:40:00;;;;;;;1.23;1.10;;;;;;;19.55;100.00;101977.97;4960075;28;20187;-76
2022/07/13 00:42:26;;;;;;;1.33;1.23;;;;;;;20.20;100.00;102103.34;4960044;28;20545;-76
2022/07/13 00:44:51;;;;;;;1.40;1.20;;;;;;;19.85;100.00;102036.00;4962853;28;20210;-76
2022/07/13 00:47:17;;;;;;;2.17;1.40;;;;;;;20.04;100.00;102072.16;4959546;28;20478;-76
2022/07/13 00:49:43;;;;;;;2.10;1.33;;;;;;;20.12;100.00;102083.78;4962185;28;20205;-76
2022/07/13 00:52:10;;;;;;;3.10;1.30;;;;;;;20.21;100.00;102075.03;4963297;28;20829;-76
2022/07/13 00:54:35;;;;;;;3.20;1.40;;;;;;;20.27;100.00;102076.00;4959390;28;20237;-76
2022/07/13 00:57:02;;;;;;;2.47;1.50;;;;;;;20.19;100.00;102062.72;4961398;28;20445;-76
2022/07/13 00:59:27;;;;;;;1.50;1.10;;;;;;;20.24;100.00;102074.56;4959182;28;20481;-76
2022/07/13 01:01:54;;;;;;;1.30;1.20;;;;;;;20.22;100.00;102081.31;4962505;28;20490;-76
2022/07/13 01:04:26;;;;;;;1.50;1.23;;;;;;;20.07;100.00;102039.00;4960685;28;20784;-76
2022/07/13 01:06:53;;;;;;;1.60;1.30;;;;;;;20.02;100.00;102038.06;4963668;28;20445;-76
2022/07/13 01:09:19;;;;;;;1.93;1.63;;;;;;;18.45;100.00;101794.91;4959140;28;20529;-76
2022/07/13 01:11:45;;;;;;;2.03;1.23;;;;;;;19.90;100.00;102015.41;4959554;28;20604;-76
2022/07/13 01:14:12;;;;;;;2.83;1.53;;;;;;;20.17;100.00;102045.78;4962678;28;20248;-76
2022/07/13 01:16:37;;;;;;;2.60;1.63;;;;;;;19.26;100.00;101917.88;4958148;28;20450;-76
2022/07/13 01:19:06;;;;;;;2.20;2.00;;;;;;;20.12;100.00;102043.75;4957296;28;20476;-76
2022/07/13 01:21:35;;;;;;;3.43;1.70;;;;;;;19.92;100.00;102016.81;4958826;28;20572;-76
2022/07/13 01:24:00;;;;;;;2.17;2.00;;;;;;;19.33;100.00;101923.25;4960206;28;20465;-76
2022/07/13 01:26:26;;;;;;;3.63;2.17;;;;;;;20.06;100.00;102037.34;4955078;28;20457;-76
2022/07/13 01:28:51;;;;;;;2.40;1.80;;;;;;;19.46;100.00;101952.97;4961844;28;20198;-76
2022/07/13 01:31:37;;;;;;;2.77;1.80;;;;;;;19.99;100.00;102036.63;4962144;28;20525;-76
2022/07/13 01:34:04;;;;;;;2.00;1.90;;;;;;;19.25;100.00;101909.97;4958875;28;20221;-76
2022/07/13 01:36:30;;;;;;;2.27;2.07;;;;;;;19.92;100.00;102016.00;4976270;28;20473;-76
2022/07/13 01:38:56;;;;;;;2.13;1.93;;;;;;;19.41;100.00;101937.34;4960794;28;20489;-77
2022/07/13 01:41:24;;;;;;;3.20;2.13;;;;;;;19.88;100.00;102031.16;4958069;28;20190;-77
2022/07/13 01:43:50;;;;;;;2.33;2.00;;;;;;;19.27;100.00;101932.34;4960467;28;20533;-76
2022/07/13 01:46:16;;;;;;;2.60;2.00;;;;;;;19.46;100.00;101968.47;4960001;28;20454;-76
2022/07/13 01:48:41;;;;;;;7.23;1.97;;;;;;;19.62;100.00;101995.88;4958664;28;20468;-76
2022/07/13 01:51:07;;;;;;;8.00;2.30;;;;;;;18.98;100.00;101880.41;4957783;28;20781;-76
2022/07/13 01:53:32;;;;;;;2.27;2.13;;;;;;;19.93;100.00;102033.97;4962396;28;20316;-77
2022/07/13 01:55:57;;;;;;;3.07;2.77;;;;;;;19.28;100.00;101917.66;4960358;28;20195;-76
2022/07/13 01:58:23;;;;;;;2.50;2.10;;;;;;;19.59;100.00;101993.63;4957562;28;20189;-76
2022/07/13 02:00:48;;;;;;;3.30;2.83;;;;;;;19.24;100.00;101898.25;4962674;28;20258;-76
2022/07/13 02:03:14;;;;;;;3.80;2.50;;;;;;;19.12;100.00;101906.38;4961277;28;20648;-77
2022/07/13 02:05:39;;;;;;;2.57;2.37;;;;;;;19.89;100.00;102000.13;4963034;28;20225;-77
2022/07/13 02:08:05;;;;;;;2.70;2.50;;;;;;;19.28;100.00;101915.78;4961882;28;20709;-76
2022/07/13 02:10:37;;;;;;;4.90;2.93;;;;;;;18.14;100.00;101736.19;4959957;28;20218;-76
2022/07/13 02:13:04;;;;;;;2.50;2.13;;;;;;;19.82;100.00;102002.97;4962727;28;20466;-76
2022/07/13 02:15:30;;;;;;;3.20;2.97;;;;;;;19.11;100.00;101888.38;4960736;28;20476;-76
2022/07/13 02:17:55;;;;;;;3.70;3.40;;;;;;;18.81;100.00;101844.88;4961607;28;20444;-77
2022/07/13 02:20:20;;;;;;;4.43;2.83;;;;;;;19.79;100.00;101990.63;4957218;28;20202;-76
2022/07/13 02:22:46;;;;;;;3.17;2.50;;;;;;;19.59;100.00;101960.97;4962255;28;20274;-76
2022/07/13 02:25:13;;;;;;;3.60;3.30;;;;;;;19.13;100.00;101878.13;4958605;28;20214;-76
2022/07/13 02:27:39;;;;;;;3.50;3.20;;;;;;;18.87;100.00;101833.09;4958641;28;20214;-77
2022/07/13 02:30:05;;;;;;;4.00;3.70;;;;;;;19.12;100.00;101881.03;4959519;28;20449;-77
2022/07/13 02:32:31;;;;;;;4.67;3.07;;;;;;;19.01;100.00;101855.50;4959147;28;20452;-76
2022/07/13 02:34:56;;;;;;;3.30;2.93;;;;;;;19.63;100.00;101966.75;4962225;28;20223;-75
2022/07/13 02:37:21;;;;;;;5.23;3.83;;;;;;;18.86;100.00;101882.22;4963446;28;20197;-76
2022/07/13 02:39:47;;;;;;;4.30;3.90;;;;;;;18.87;100.00;101845.84;4958166;28;20237;-77
2022/07/13 02:42:12;;;;;;;4.57;4.17;;;;;;;19.34;100.00;101933.88;4959856;28;20261;-77
2022/07/13 02:44:38;;;;;;;4.17;3.87;;;;;;;19.41;100.00;101925.63;4961432;28;20205;-77
2022/07/13 02:47:03;;;;;;;6.67;4.20;;;;;;;18.99;100.00;101848.63;4962651;28;20200;-77
2022/07/13 02:49:28;;;;;;;4.07;3.77;;;;;;;19.30;100.00;101896.50;4960517;28;20648;-76
2022/07/13 02:51:54;;;;;;;5.30;3.90;;;;;;;19.54;100.00;101954.56;4973430;28;20196;-76
2022/07/13 02:54:20;;;;;;;5.00;4.50;;;;;;;19.02;100.00;101848.97;4959399;28;20626;-76
2022/07/13 02:56:45;;;;;;;4.17;3.87;;;;;;;19.05;100.00;101869.44;4959498;28;20198;-76
2022/07/13 02:59:11;;;;;;;5.90;5.00;;;;;;;19.28;100.00;101920.38;4956834;28;20500;-78
2022/07/13 03:01:36;;;;;;;4.90;4.50;;;;;;;19.57;100.00;101986.75;4957394;28;20190;-76
2022/07/13 03:04:02;;;;;;;5.20;4.80;;;;;;;18.88;100.00;101851.03;4957095;28;20294;-78
2022/07/13 03:06:27;;;;;;;4.10;3.80;;;;;;;18.90;100.00;101857.09;4957334;28;20698;-76
2022/07/13 03:08:52;;;;;;;6.10;5.43;;;;;;;19.36;100.00;101920.88;4973893;28;20201;-77
2022/07/13 03:11:19;;;;;;;5.57;5.00;;;;;;;19.61;100.00;101958.00;4956155;28;20228;-77
2022/07/13 03:13:44;;;;;;;6.87;4.80;;;;;;;19.45;100.00;101935.00;4957433;28;20211;-77
2022/07/13 03:16:10;;;;;;;8.33;5.20;;;;;;;18.78;100.00;101817.34;4958363;28;20452;-76
2022/07/13 03:18:35;;;;;;;4.70;4.30;;;;;;;19.30;100.00;101899.22;4956838;28;20191;-77
2022/07/13 03:21:00;;;;;;;4.90;4.50;;;;;;;19.33;100.00;101923.25;4959675;28;20266;-77
2022/07/13 03:23:26;;;;;;;5.67;5.07;;;;;;;19.38;100.00;101921.50;4957108;28;20179;-77
2022/07/13 03:25:51;;;;;;;5.47;4.97;;;;;;;19.68;100.00;101979.72;4959706;28;20202;-77
2022/07/13 03:28:17;;;;;;;6.07;5.00;;;;;;;18.96;100.00;101847.19;4958157;28;20194;-77
2022/07/13 03:30:42;;;;;;;6.07;5.43;;;;;;;19.30;100.00;101896.50;4960327;28;20190;-77
2022/07/13 03:33:07;;;;;;;5.20;4.70;;;;;;;18.86;100.00;101830.59;4974862;28;20209;-77
2022/07/13 03:35:33;;;;;;;5.30;4.80;;;;;;;19.67;100.00;101946.19;4956659;28;20758;-77
2022/07/13 03:37:58;;;;;;;5.57;5.07;;;;;;;18.95;100.00;101834.66;4961479;28;20186;-77
2022/07/13 03:40:24;;;;;;;8.50;6.17;;;;;;;18.88;100.00;101810.28;4972504;28;20198;-76
2022/07/13 03:42:50;;;;;;;6.47;4.87;;;;;;;19.51;100.00;101922.34;4959427;28;20604;-77
2022/07/13 03:45:15;;;;;;;5.60;5.10;;;;;;;19.70;100.00;101947.63;4956080;28;20480;-77
2022/07/13 03:47:41;;;;;;;6.37;5.50;;;;;;;18.85;100.00;101805.28;4956605;28;20225;-77
2022/07/13 03:50:06;;;;;;;7.43;5.47;;;;;;;19.35;100.00;101873.00;4960336;28;20557;-77
2022/07/13 03:52:32;;;;;;;6.50;5.97;;;;;;;19.40;100.00;101883.16;4956308;28;20195;-76
2022/07/13 03:54:57;;;;;;;7.37;6.60;;;;;;;18.58;100.00;101749.63;4964878;28;20680;-77
2022/07/13 03:57:23;;;;;;;6.10;5.60;;;;;;;18.15;100.00;101688.97;4961741;28;20566;-76
2022/07/13 03:59:48;;;;;;;6.30;5.77;;;;;;;19.45;100.00;101910.50;4960172;28;20191;-78
2022/07/13 04:02:13;;;;;;;6.73;5.40;;;;;;;19.39;100.00;101866.03;4962565;28;20190;-77
2022/07/13 04:04:39;;;;;;;6.47;5.87;;;;;;;18.96;100.00;101809.94;4960537;28;20202;-77
2022/07/13 04:07:04;;;;;;;6.47;5.77;;;;;;;19.68;100.00;101903.50;4973811;28;21795;-77
2022/07/13 04:09:30;;;;;;;7.50;6.70;;;;;;;19.66;100.00;101898.28;4958945;28;20215;-77
2022/07/13 04:11:55;;;;;;;6.40;5.80;;;;;;;19.20;100.00;101813.56;4964133;28;20669;-77
2022/07/13 04:14:20;;;;;;;6.40;5.80;;;;;;;19.79;100.00;101903.53;4960723;28;20222;-77
2022/07/13 04:16:46;;;;;;;5.93;5.33;;;;;;;19.63;100.00;101877.78;4962707;28;20323;-76
2022/07/13 04:19:11;;;;;;;8.60;6.67;;;;;;;18.82;100.00;101747.84;4960077;28;20703;-78
2022/07/13 04:21:37;;;;;;;6.77;5.67;;;;;;;18.61;100.00;101713.84;4959945;28;20238;-77
2022/07/13 04:24:02;;;;;;;6.73;5.80;;;;;;;19.28;100.00;101820.56;4961024;28;20210;-78
2022/07/13 04:26:28;;;;;;;7.40;5.23;;;;;;;19.17;100.00;101791.44;4959648;28;20659;-78
2022/07/13 04:28:54;;;;;;;6.93;5.87;;;;;;;19.31;100.00;101808.41;4962525;28;20273;-76
2022/07/13 04:31:19;;;;;;;6.07;5.53;;;;;;;18.86;100.00;101735.44;4956956;28;20784;-78
2022/07/13 04:33:44;;;;;;;5.80;5.30;;;;;;;18.40;100.00;101671.72;4958721;28;20211;-77
2022/07/13 04:36:10;;;;;;;7.83;6.90;;;;;;;19.80;100.00;101863.50;4952566;28;20186;-77
2022/07/13 04:38:35;;;;;;;6.40;5.80;;;;;;;19.88;100.00;101878.69;4957730;28;20689;-75
2022/07/13 04:41:01;;;;;;;6.40;5.50;;;;;;;19.26;100.00;101762.84;4965107;28;20186;-77
2022/07/13 04:43:27;;;;;;;5.80;5.30;;;;;;;19.12;100.00;101751.38;4958643;28;20183;-75
2022/07/13 04:45:53;;;;;;;5.43;4.93;;;;;;;18.00;100.00;101583.50;4957534;28;20204;-77
2022/07/13 04:48:18;;;;;;;7.10;6.10;;;;;;;19.55;100.00;101799.19;4963145;28;20895;-76
2022/07/13 04:50:44;;;;;;;6.63;6.03;;;;;;;19.19;100.00;101767.56;4961942;28;20573;-78
2022/07/13 04:53:09;;;;;;;5.07;4.43;;;;;;;19.88;100.00;101865.91;4966503;28;20207;-78
2022/07/13 04:55:38;;;;;;;6.23;5.70;;;;;;;19.98;100.00;101870.75;4966297;28;20790;-78
2022/07/13 04:58:05;;;;;;;6.73;6.10;;;;;;;19.14;100.00;101757.38;4965044;28;20293;-77
2022/07/13 05:00:30;;;;;;;6.77;6.00;;;;;;;19.37;100.00;101810.19;4980588;28;20444;-77
2022/07/13 05:02:55;;;;;;;6.50;5.90;;;;;;;19.91;100.00;101887.19;4965453;28;20975;-78
2022/07/13 05:05:21;;;;;;;6.30;5.70;;;;;;;19.09;100.00;101743.69;4965224;28;20382;-78
2022/07/13 05:07:47;;;;;;;5.13;4.70;;;;;;;19.30;100.00;101782.28;4964997;28;20277;-78
2022/07/13 05:10:12;;;;;;;5.23;4.80;;;;;;;19.94;100.00;101883.19;4966733;28;20621;-78
2022/07/13 05:12:42;;;;;;;4.60;4.20;;;;;;;19.94;100.00;101875.84;4964905;28;20210;-78
2022/07/13 05:15:09;;;;;;;6.57;5.30;;;;;;;19.91;100.00;101875.50;4965042;28;20206;-78
2022/07/13 05:17:34;;;;;;;4.90;4.40;;;;;;;19.91;100.00;101862.69;4965327;28;20429;-78
2022/07/13 05:20:00;;;;;;;6.07;4.90;;;;;;;20.00;100.00;101879.50;4964729;28;20425;-77
2022/07/13 05:22:25;;;;;;;5.47;4.97;;;;;;;19.84;100.00;101840.19;4965469;28;20249;-77
2022/07/13 05:24:51;;;;;;;5.73;4.50;;;;;;;19.75;100.00;101864.22;4964326;28;20203;-78
2022/07/13 05:27:17;;;;;;;4.30;3.90;;;;;;;20.03;100.00;101868.97;4967563;28;20190;-77
2022/07/13 05:29:42;;;;;;;5.27;4.43;;;;;;;19.01;100.00;101733.16;4965822;28;21002;-78
2022/07/13 05:32:08;;;;;;;4.90;3.90;;;;;;;20.11;100.00;101870.50;4966295;28;20238;-77
2022/07/13 05:34:34;;;;;;;4.10;3.70;;;;;;;19.92;100.00;101861.63;4964847;28;20214;-78
2022/07/13 05:36:59;;;;;;;4.73;3.97;;;;;;;19.86;100.00;101838.06;4963967;28;20703;-78
2022/07/13 05:39:25;;;;;;;4.20;3.80;;;;;;;19.69;100.00;101813.44;4962368;28;20518;-78
2022/07/13 05:41:50;;;;;;;4.83;4.40;;;;;;;19.53;100.00;101774.13;4964018;28;20191;-77
2022/07/13 05:44:16;;;;;;;3.47;3.17;;;;;;;19.57;100.00;101769.03;4966065;28;20238;-77
2022/07/13 05:46:41;;;;;;;3.73;3.30;;;;;;;19.95;100.00;101819.47;4964315;28;20197;-77
2022/07/13 05:49:07;;;;;;;5.00;4.17;;;;;;;19.81;100.00;101802.56;4964694;28;20182;-77
2022/07/13 05:51:32;;;;;;;3.80;3.50;;;;;;;20.20;100.00;101871.81;4979509;28;20202;-78
2022/07/13 05:53:58;;;;;;;3.20;2.90;;;;;;;20.33;100.00;101871.53;4979119;28;20698;-78
2022/07/13 05:56:23;;;;;;;3.57;3.27;;;;;;;19.91;100.00;101797.34;4964107;28;20205;-78
2022/07/13 05:58:48;;;;;;;4.43;4.03;;;;;;;19.43;100.00;101719.47;4965656;28;20190;-78
2022/07/13 06:01:14;;;;;;;4.00;3.00;;;;;;;19.64;100.00;101751.53;4964661;28;20237;-78
2022/07/13 06:03:39;;;;;;;5.70;4.83;;;;;;;19.72;100.00;101752.25;4964780;28;20238;-78
2022/07/13 06:06:05;;;;;;;3.83;3.53;;;;;;;19.94;100.00;101788.72;4964699;28;20663;-77
2022/07/13 06:08:30;;;;;;;4.37;4.00;;;;;;;20.28;100.00;101846.94;4965854;28;20583;-77
2022/07/13 06:10:56;;;;;;;8.93;3.93;;;;;;;19.68;100.00;101762.81;4964183;28;20191;-77
2022/07/13 06:13:21;;;;;;;5.70;4.90;;;;;;;20.13;100.00;101832.13;4962283;28;20245;-77
2022/07/13 06:15:47;;;;;;;4.13;3.83;;;;;;;20.26;100.00;101857.22;4979548;28;20575;-78
2022/07/13 06:18:12;;;;;;;4.73;4.20;;;;;;;20.03;100.00;101808.22;4964826;28;20715;-78
2022/07/13 06:20:37;;;;;;;4.80;4.30;;;;;;;20.13;100.00;101827.50;4979450;28;20318;-78
2022/07/13 06:23:10;;;;;;;5.03;3.70;;;;;;;20.44;100.00;101882.69;4964718;28;20237;-77
2022/07/13 06:25:37;;;;;;;5.47;4.40;;;;;;;20.31;100.00;101862.78;4965047;28;20542;-77
2022/07/13 06:28:03;;;;;;;5.53;4.90;;;;;;;20.19;100.00;101847.53;4978578;28;20449;-78
2022/07/13 06:30:28;;;;;;;5.17;4.70;;;;;;;20.16;100.00;101862.44;4961672;28;20806;-78
2022/07/13 06:32:54;;;;;;;5.10;4.60;;;;;;;19.76;100.00;101780.66;4964747;28;20711;-77
2022/07/13 06:35:19;;;;;;;5.70;5.20;;;;;;;20.32;100.00;101879.97;4964167;28;20222;-77
2022/07/13 06:37:44;;;;;;;5.03;4.63;;;;;;;20.23;100.00;101887.69;4963788;28;20186;-78
2022/07/13 06:40:10;;;;;;;6.40;5.80;;;;;;;19.84;100.00;101824.69;4961974;28;20303;-77
2022/07/13 06:42:36;;;;;;;5.70;5.20;;;;;;;19.30;100.00;101731.41;4962237;28;20191;-77
2022/07/13 06:45:01;;;;;;;6.87;6.17;;;;;;;20.14;100.00;101855.59;4963380;28;20206;-78
2022/07/13 06:47:26;;;;;;;6.30;5.70;;;;;;;19.31;100.00;101743.13;4962819;28;20194;-78
2022/07/13 06:49:52;;;;;;;5.83;5.30;;;;;;;18.59;100.00;101601.84;4963458;28;20191;-78
2022/07/13 06:52:18;;;;;;;5.87;5.10;;;;;;;18.58;100.00;101586.63;4962240;28;20194;-77
2022/07/13 06:54:43;;;;;;;5.70;5.20;;;;;;;20.47;100.00;101882.19;4976528;23;20226;-70
2022/07/13 06:57:08;;;;;;;6.40;5.20;;;;;;;20.39;100.00;101850.69;4970221;28;20192;-69
2022/07/13 06:59:34;;;;;;;5.80;5.20;;;;;;;19.97;100.00;101769.16;4966788;28;20698;-70
2022/07/13 07:02:00;;;;;;;8.50;6.57;;;;;;;20.51;100.00;101878.75;4965455;28;20194;-69
2022/07/13 07:04:25;;;;;;;6.30;5.70;;;;;;;20.17;100.00;101801.47;4967221;28;20432;-69
2022/07/13 07:06:50;;;;;;;8.50;6.20;;;;;;;20.46;100.00;101845.13;4969675;28;20631;-69
2022/07/13 07:09:16;;;;;;;7.37;5.57;;;;;;;20.51;100.00;101851.50;4967216;28;20186;-69
2022/07/13 07:11:43;;;;;;;6.87;6.17;;;;;;;20.47;100.00;101852.22;4969255;28;20745;-69
2022/07/13 07:14:09;;;;;;;6.90;6.20;;;;;;;20.61;100.00;101888.25;4970271;28;20210;-70
2022/07/13 07:16:34;;;;;;;8.03;6.57;;;;;;;20.48;100.00;101856.59;4965513;28;20813;-69
2022/07/13 07:19:00;;;;;;;7.73;6.23;;;;;;;20.44;100.00;101837.16;4968067;28;20194;-69
2022/07/13 07:21:26;;;;;;;9.70;6.40;;;;;;;20.20;100.00;101800.16;4982878;28;20186;-69
2022/07/13 07:23:51;;;;;;;6.80;5.30;;;;;;;20.25;100.00;101801.09;4969501;28;20455;-69
2022/07/13 07:26:17;;;;;;;8.67;6.30;;;;;;;20.58;100.00;101873.19;4969403;28;20194;-69
2022/07/13 07:28:43;;;;;;;6.87;6.27;;;;;;;20.28;100.00;101825.13;4971790;28;20587;-69
2022/07/13 07:31:08;;;;;;;8.50;7.17;;;;;;;20.70;100.00;101879.44;4970374;28;20270;-69
2022/07/13 07:33:33;;;;;;;9.47;7.93;;;;;;;20.54;100.00;101840.16;4968670;28;20576;-69
2022/07/13 07:35:59;;;;;;;8.50;7.10;;;;;;;20.46;100.00;101821.41;4971909;28;20301;-70
2022/07/13 07:38:24;;;;;;;10.40;9.20;;;;;;;20.82;100.00;101887.59;4968811;28;20203;-69
2022/07/13 07:40:50;;;;;;;9.47;8.50;;;;;;;20.93;100.00;101875.81;4971870;28;20237;-69
2022/07/13 07:43:15;;;;;;;14.87;8.10;;;;;;;20.42;100.00;101806.59;4971420;28;20202;-69
2022/07/13 07:45:40;;;;;;;10.07;8.53;;;;;;;20.41;100.00;101795.97;4970567;28;20187;-69
2022/07/13 07:48:06;;;;;;;10.90;9.80;;;;;;;20.17;100.00;101757.88;4971674;28;21205;-69
2022/07/13 07:50:31;;;;;;;10.13;8.33;;;;;;;20.97;100.00;101860.66;4969910;28;20182;-69
2022/07/13 07:52:57;;;;;;;9.25;8.25;;;;;;;20.85;100.00;101826.28;4973388;28;20530;-69
2022/07/13 07:55:23;;;;;;;10.10;8.17;;;;;;;21.18;100.00;101861.84;4969193;28;20786;-70
2022/07/13 07:57:50;;;;;;;14.50;11.53;;;;;;;21.13;100.00;101869.09;4970884;28;20189;-69
2022/07/13 08:00:16;;;;;;;12.00;9.67;;;;;;;20.21;100.00;101722.81;4971305;28;20425;-69
2022/07/13 08:02:43;;;;;;;7.70;6.90;;;;;;;20.39;100.00;101760.75;4971658;28;20444;-69
2022/07/13 08:05:09;;;;;;;11.27;9.30;;;;;;;20.98;100.00;101818.66;4972329;28;20449;-69
2022/07/13 08:07:39;;;;;;;9.27;7.40;;;;;;;20.53;100.00;101715.84;4971058;28;20957;-69
2022/07/13 08:10:05;;;;;;;9.50;8.50;;;;;;;21.34;100.00;101859.38;4971506;28;20429;-70
2022/07/13 08:12:31;;;;;;;11.13;8.90;;;;;;;21.32;100.00;101834.22;4971570;28;20924;-69
2022/07/13 08:14:57;;;;;;;9.43;7.00;;;;;;;21.54;100.00;101853.47;4971312;28;20492;-69
2022/07/13 08:17:22;;;;;;;9.70;8.40;;;;;;;21.36;100.00;101810.84;4969827;28;20588;-69
2022/07/13 08:19:47;;;;;;;6.87;6.27;;;;;;;21.37;100.00;101829.72;4972142;28;20186;-70
2022/07/13 08:22:13;;;;;;;9.93;7.53;;;;;;;21.37;100.00;101810.63;4970256;28;20194;-69
2022/07/13 08:24:38;;;;;;;10.60;6.97;;;;;;;21.73;100.00;101830.31;4970664;28;20215;-69
2022/07/13 08:27:04;;;;;;;9.33;7.30;;;;;;;21.48;100.00;101784.31;4972153;28;20190;-69
2022/07/13 08:29:29;;;;;;;9.27;6.80;;;;;;;21.64;100.00;101815.44;4972202;28;20187;-70
2022/07/13 08:31:54;;;;;;;9.53;7.37;;;;;;;21.48;100.00;101788.97;4970525;28;20190;-69
2022/07/13 08:39:48;;;;;;;9.60;8.20;;;;;;;21.82;100.00;101828.81;4970775;28;20417;-69
2022/07/13 08:42:14;;;;;;;8.50;7.50;;;;;;;21.76;100.00;101815.34;4971902;28;20425;-69
2022/07/13 08:44:39;;;;;;;12.57;8.00;;;;;;;21.75;100.00;101798.09;4971317;28;20214;-69
2022/07/13 08:47:10;;;;;;;8.80;7.70;;;;;;;21.66;100.00;101781.31;4971248;28;20190;-70
2022/07/13 08:49:36;;;;;;;9.50;7.47;;;;;;;21.85;100.00;101816.56;4970024;28;20232;-70
2022/07/13 08:52:02;;;;;;;8.60;7.23;;;;;;;21.98;100.00;101834.50;4970474;28;20791;-69
2022/07/13 08:54:29;;;;;;;9.23;5.70;;;;;;;21.49;100.00;101738.75;4971010;28;20217;-70
2022/07/13 08:56:55;;;;;;;10.20;8.03;;;;;;;21.60;100.00;101748.75;4970724;28;20436;-69
2022/07/13 08:59:21;;;;;;;8.60;7.70;;;;;;;21.36;100.00;101718.91;4970424;28;20434;-70
2022/07/13 09:01:46;;;;;;;9.90;7.63;;;;;;;21.60;100.00;101767.84;4970187;28;20195;-69
2022/07/13 09:04:11;;;;;;;9.07;7.23;;;;;;;21.67;100.00;101761.16;4971327;28;20202;-70
2022/07/13 09:06:50;;;;;;;9.07;6.90;;;;;;;22.45;100.00;101840.38;4970739;28;20268;-70
2022/07/13 09:09:35;;;;;;;7.50;5.67;;;;;;;22.36;100.00;101838.31;4971963;28;20702;-70
2022/07/13 09:12:14;;;;;;;6.67;4.80;;;;;;;22.49;100.00;101837.97;4969024;28;20540;-70
2022/07/13 09:14:39;;;;;;;10.43;8.03;;;;;;;22.22;100.00;101816.03;4970242;28;20472;-70
2022/07/13 09:17:05;;;;;;;11.40;6.10;;;;;;;22.31;100.00;101830.91;4971226;28;20445;-70
2022/07/13 09:19:39;;;;;;;9.47;6.27;;;;;;;22.40;100.00;101839.50;4971064;28;20194;-70
2022/07/13 09:22:12;;;;;;;12.47;8.53;;;;;;;22.28;100.00;101821.31;4971601;28;20197;-70
2022/07/13 09:24:48;;;;;;;8.90;5.37;;;;;;;22.44;100.00;101833.25;4969485;28;20453;-70
2022/07/13 09:27:15;;;;;;;10.23;7.40;;;;;;;22.39;100.00;101843.28;4969206;28;20440;-70
2022/07/13 09:29:41;;;;;;;9.30;6.40;;;;;;;22.21;100.00;101798.78;4967554;28;20475;-69
2022/07/13 09:32:09;;;;;;;10.23;6.40;;;;;;;22.45;100.00;101820.41;4968374;28;20910;-70
2022/07/13 09:34:54;;;;;;;9.07;6.33;;;;;;;22.50;100.00;101837.69;4971117;28;20470;-70
2022/07/13 09:37:22;;;;;;;8.50;6.63;;;;;;;22.60;100.00;101847.94;4969072;28;20478;-70
2022/07/13 09:40:09;;;;;;;4.17;3.73;;;;;;;22.80;100.00;101850.09;4969283;28;20433;-70
2022/07/13 09:42:40;;;;;;;4.43;3.77;;;;;;;22.67;100.00;101821.22;4970202;28;20506;-70
2022/07/13 09:47:53;;;;;;;7.17;4.27;;;;;;;22.73;100.00;101844.78;4969973;28;20909;-70
2022/07/13 09:50:41;;;;;;;3.20;2.90;;;;;;;22.60;100.00;101830.72;4968462;28;20569;-70
2022/07/13 09:53:32;;;;;;;4.63;3.03;;;;;;;22.73;100.00;101838.50;4970454;28;20468;-71
2022/07/13 09:56:00;;;;;;;4.07;3.37;;;;;;;22.83;100.00;101846.03;4969500;28;20849;-70
2022/07/13 09:58:30;;;;;;;4.10;3.70;;;;;;;22.88;100.00;101857.00;4968336;28;20850;-71
2022/07/13 10:00:57;;;;;;;7.13;4.87;;;;;;;22.36;100.00;101770.81;4966904;28;20987;-69
2022/07/13 10:03:29;;;;;;;6.37;5.00;;;;;;;22.79;100.00;101857.44;4969092;28;20969;-70
2022/07/13 10:05:56;;;;;;;4.90;4.00;;;;;;;22.47;100.00;101799.94;4970101;28;20429;-70
2022/07/13 10:08:22;;;;;;;8.07;4.90;;;;;;;22.84;100.00;101856.69;4969836;28;20989;-69
2022/07/13 10:10:48;;;;;;;5.83;4.30;;;;;;;22.93;100.00;101857.06;4970383;28;20915;-70
2022/07/13 10:13:14;;;;;;;3.63;3.33;;;;;;;22.99;100.00;101842.38;4968928;28;20492;-70
2022/07/13 10:15:41;;;;;;;6.10;5.03;;;;;;;22.82;100.00;101842.44;4966857;28;20517;-70
2022/07/13 10:18:09;;;;;;;4.13;3.73;;;;;;;22.97;100.00;101867.28;4963759;28;20526;-70
2022/07/13 10:20:37;;;;;;;4.30;3.17;;;;;;;22.66;100.00;101792.22;4969915;28;20433;-70
2022/07/13 10:23:03;;;;;;;3.50;3.20;;;;;;;22.99;100.00;101869.75;4969286;28;20577;-70
2022/07/13 10:25:45;;;;;;;4.20;3.83;;;;;;;22.95;100.00;101865.88;4983619;28;21019;-71
2022/07/13 10:28:14;;;;;;;2.80;2.60;;;;;;;22.31;100.00;101760.66;4969213;28;20434;-71
2022/07/13 10:30:43;;;;;;;2.20;2.00;;;;;;;22.68;100.00;101806.47;4967728;28;20430;-70
2022/07/13 10:33:22;;;;;;;3.67;2.80;;;;;;;23.09;100.00;101858.09;4967506;28;20532;-70
2022/07/13 10:35:53;;;;;;;2.20;2.00;;;;;;;23.20;100.00;101849.72;4967977;28;20863;-70
2022/07/13 10:38:27;;;;;;;2.50;2.27;;;;;;;23.25;100.00;101854.41;4967860;28;20429;-70
2022/07/13 10:41:19;;;;;;;3.20;2.47;;;;;;;23.34;100.00;101862.97;4967278;28;20436;-70
2022/07/13 10:44:01;;;;;;;2.77;2.10;;;;;;;23.28;100.00;101855.81;4968759;28;20442;-70
2022/07/13 10:46:49;;;;;;;4.50;2.47;;;;;;;23.38;100.00;101848.50;4966967;28;20558;-70
2022/07/13 10:49:37;;;;;;;2.20;1.93;;;;;;;23.52;100.00;101862.59;4967846;28;20430;-70
2022/07/13 10:52:26;;;;;;;2.70;2.00;;;;;;;23.63;100.00;101858.00;4967449;28;20422;-70
2022/07/13 10:55:05;;;;;;;5.10;3.17;;;;;;;23.55;100.00;101870.28;4967924;28;21061;-70
2022/07/13 10:57:32;;;;;;;6.57;2.57;;;;;;;23.44;100.00;101863.06;4967111;28;20541;-70
2022/07/13 11:00:24;;;;;;;3.27;2.03;;;;;;;23.54;100.00;101874.09;4965329;28;20429;-70
2022/07/13 11:02:53;;;;;;;4.80;2.80;;;;;;;23.62;100.00;101879.09;4965735;28;20910;-71
2022/07/13 11:05:30;;;;;;;3.40;2.53;;;;;;;23.59;100.00;101876.88;4966833;28;20421;-70
2022/07/13 11:07:56;;;;;;;3.30;2.60;;;;;;;23.11;100.00;101801.19;4968401;28;20460;-70
2022/07/13 11:10:30;;;;;;;2.50;2.10;;;;;;;23.23;100.00;101829.22;4968643;28;20465;-70
2022/07/13 11:13:04;;;;;;;2.50;2.07;;;;;;;23.81;100.00;101898.75;4968989;28;20417;-70
2022/07/13 11:15:52;;;;;;;2.13;1.93;;;;;;;23.85;100.00;101888.09;4970621;28;21084;-70
2022/07/13 11:18:28;;;;;;;2.10;1.80;;;;;;;23.80;100.00;101885.31;4964935;28;20438;-71
2022/07/13 11:20:57;;;;;;;3.37;1.93;;;;;;;23.72;100.00;101894.81;4961102;28;20950;-69
2022/07/13 11:26:34;;;;;;;3.50;1.90;;;;;;;23.82;100.00;101889.44;4962355;28;20632;-70
2022/07/13 11:29:21;;;;;;;1.50;1.40;;;;;;;24.03;100.00;101898.63;4965789;28;20444;-73